Terminal Aerodrome Forecast
Issued by NWS

Home | Current Version | Previous Version | Graphics & Text | Print | Product List | Glossary On
Versions: 1 2 3 4 5 6 7 8 9 10 11 12 13 14 15 16 17 18 19
000
FTUS42 KMHX 262342
TAFPGV
TAF
KPGV 262342Z 2700/2724 35004KT P6SM SCT008 OVC015
     FM270200 VRB03KT 5SM BR SCT008 OVC015
     FM270500 00000KT 2SM BR SCT004
     FM271400 34004KT P6SM SKC
      AMD LTD TO CLD VIS AND WIND=

USA.gov is the U.S. government's official web portal to all federal, state and local government web resources and services.